Time;durP1;ratioP1;P1;durP2;ratioP2;P2;SDS_P1;SDS_P2;PMS_P1;PMS_P2;Temp;Humidity;BMP_temperature;BMP_pressure;BME280_temperature;BME280_humidity;BME280_pressure;Samples;Min_cycle;Max_cycle;Signal;HPM_P1;HPM_P2
2022/04/03 00:02:07;;;;;;;;;;;;;;;7.49;66.99;94142.78;5113038;28;1103;-50
2022/04/03 00:04:33;;;;;;;;;;;;;;;7.55;66.63;94145.63;5113366;28;1079;-50
2022/04/03 00:07:00;;;;;;;;;;;;;;;7.20;66.85;94138.78;5113366;28;1020;-50
2022/04/03 00:09:26;;;;;;;;;;;;;;;6.84;67.91;94147.03;5113446;28;995;-50
2022/04/03 00:11:52;;;;;;;;;;;;;;;6.88;68.28;94155.53;5112856;28;1988;-50
2022/04/03 00:14:18;;;;;;;;;;;;;;;6.95;68.07;94161.84;5113082;28;1902;-50
2022/04/03 00:16:45;;;;;;;;;;;;;;;6.88;68.09;94160.84;5112011;28;1029;-49
2022/04/03 00:19:11;;;;;;;;;;;;;;;7.02;68.45;94146.94;5113628;28;1103;-50
2022/04/03 00:21:37;;;;;;;;;;;;;;;7.27;67.23;94139.81;5113118;28;1993;-50
2022/04/03 00:24:04;;;;;;;;;;;;;;;7.24;66.57;94134.81;5113433;28;1047;-50
2022/04/03 00:26:30;;;;;;;;;;;;;;;7.24;66.76;94130.31;5113071;28;980;-50
2022/04/03 00:28:56;;;;;;;;;;;;;;;7.37;66.43;94137.78;5113120;28;1203;-50
2022/04/03 00:31:23;;;;;;;;;;;;;;;7.45;67.24;94144.94;5111778;28;1059;-50
2022/04/03 00:33:49;;;;;;;;;;;;;;;7.68;66.09;94150.41;5113049;28;1918;-49
2022/04/03 00:36:15;;;;;;;;;;;;;;;7.73;65.06;94150.75;5113207;28;1019;-50
2022/04/03 00:38:41;;;;;;;;;;;;;;;7.35;65.68;94141.63;5115735;28;1083;-50
2022/04/03 00:41:08;;;;;;;;;;;;;;;7.00;66.79;94143.56;5116580;28;1079;-50
2022/04/03 00:43:34;;;;;;;;;;;;;;;7.08;66.64;94135.63;5116574;28;1957;-50
2022/04/03 00:46:00;;;;;;;;;;;;;;;7.21;66.34;94133.31;5115105;28;1091;-50
2022/04/03 00:48:27;;;;;;;;;;;;;;;7.37;66.00;94129.00;5116843;28;1055;-50
2022/04/03 00:50:53;;;;;;;;;;;;;;;7.52;65.41;94113.19;5116054;28;1161;-50
2022/04/03 00:53:20;;;;;;;;;;;;;;;7.59;65.28;94107.03;5116439;28;1902;-50
2022/04/03 00:55:46;;;;;;;;;;;;;;;7.38;65.30;94114.69;5116423;28;969;-50
2022/04/03 00:58:13;;;;;;;;;;;;;;;7.19;66.93;94115.84;5116292;28;1879;-50
2022/04/03 01:00:39;;;;;;;;;;;;;;;7.14;67.49;94139.47;5115017;28;1079;-50
2022/04/03 01:03:05;;;;;;;;;;;;;;;7.09;67.78;94136.44;5116265;28;1069;-50
2022/04/03 01:05:32;;;;;;;;;;;;;;;7.08;67.08;94146.25;5116056;28;1020;-50
2022/04/03 01:07:58;;;;;;;;;;;;;;;7.01;66.72;94158.53;5115949;28;1095;-50
2022/04/03 01:10:24;;;;;;;;;;;;;;;6.98;67.34;94166.81;5116129;28;1110;-50
2022/04/03 01:12:50;;;;;;;;;;;;;;;7.08;66.86;94170.19;5114357;28;1100;-49
2022/04/03 01:15:17;;;;;;;;;;;;;;;7.04;67.25;94152.91;5116131;28;1992;-49
2022/04/03 01:17:43;;;;;;;;;;;;;;;6.77;67.07;94156.66;5114599;28;941;-50
2022/04/03 01:20:10;;;;;;;;;;;;;;;6.84;67.82;94145.22;5116214;28;999;-50
2022/04/03 01:22:37;;;;;;;;;;;;;;;7.03;67.75;94148.56;5115827;28;1042;-50
2022/04/03 01:25:04;;;;;;;;;;;;;;;7.11;67.17;94158.38;5115745;28;980;-50
2022/04/03 01:27:30;;;;;;;;;;;;;;;6.90;67.80;94165.00;5115545;27;1032;-50
2022/04/03 01:29:57;;;;;;;;;;;;;;;6.83;68.87;94164.00;5114761;28;1016;-50
2022/04/03 01:32:23;;;;;;;;;;;;;;;6.93;68.29;94175.31;5115792;28;973;-49
2022/04/03 01:34:50;;;;;;;;;;;;;;;7.11;68.77;94174.34;5115508;28;1886;-49
2022/04/03 01:37:16;;;;;;;;;;;;;;;7.18;68.04;94178.81;5115358;28;1020;-50
2022/04/03 01:39:42;;;;;;;;;;;;;;;7.32;67.88;94188.00;5115830;28;995;-50
2022/04/03 01:42:09;;;;;;;;;;;;;;;7.59;65.65;94194.81;5115003;28;1866;-50
2022/04/03 01:44:35;;;;;;;;;;;;;;;7.71;65.75;94189.16;5115470;28;1084;-50
2022/04/03 01:47:02;;;;;;;;;;;;;;;7.67;68.10;94195.81;5115251;28;1020;-50
2022/04/03 01:49:28;;;;;;;;;;;;;;;7.70;65.32;94203.47;5115164;28;1020;-50
2022/04/03 01:51:53;;;;;;;;;;;;;;;7.59;65.17;94189.50;5115139;28;1161;-50
2022/04/03 01:54:20;;;;;;;;;;;;;;;7.66;64.75;94183.50;5115253;28;1909;-50
2022/04/03 01:56:46;;;;;;;;;;;;;;;7.69;66.36;94181.34;5114931;28;969;-50
2022/04/03 01:59:12;;;;;;;;;;;;;;;7.68;67.48;94181.50;5114215;28;1024;-50
2022/04/03 02:01:39;;;;;;;;;;;;;;;7.70;67.41;94175.03;5115128;28;1030;-50
2022/04/03 02:04:05;;;;;;;;;;;;;;;7.72;67.55;94182.84;5114972;28;1071;-50
2022/04/03 02:06:31;;;;;;;;;;;;;;;7.66;66.41;94189.66;5114768;28;1096;-50
2022/04/03 02:08:57;;;;;;;;;;;;;;;7.57;67.71;94186.19;5114821;28;1008;-51
2022/04/03 02:11:23;;;;;;;;;;;;;;;7.49;68.75;94183.50;5114849;28;1880;-50
2022/04/03 02:13:50;;;;;;;;;;;;;;;7.36;69.65;94189.34;5114314;28;1918;-50
2022/04/03 02:16:18;;;;;;;;;;;;;;;7.39;69.89;94190.81;5115045;28;961;-49
2022/04/03 02:18:44;;;;;;;;;;;;;;;7.41;69.85;94181.66;5114612;28;1091;-49
2022/04/03 02:21:11;;;;;;;;;;;;;;;7.35;70.62;94189.50;5114701;28;1094;-49
2022/04/03 02:23:38;;;;;;;;;;;;;;;7.36;70.72;94199.13;5114545;28;1080;-49
2022/04/03 02:26:05;;;;;;;;;;;;;;;7.29;70.91;94184.84;5114457;28;1994;-49
2022/04/03 02:28:32;;;;;;;;;;;;;;;7.19;71.30;94177.84;5105206;28;2575;-49
2022/04/03 02:30:58;;;;;;;;;;;;;;;7.13;70.82;94175.84;5093898;28;1697;-49
2022/04/03 02:33:24;;;;;;;;;;;;;;;6.91;72.67;94166.66;5093857;28;1913;-49
2022/04/03 02:35:51;;;;;;;;;;;;;;;6.82;73.04;94165.81;5094059;28;1024;-49
2022/04/03 02:38:18;;;;;;;;;;;;;;;6.90;72.80;94180.09;5093975;28;1050;-49
2022/04/03 02:40:44;;;;;;;;;;;;;;;6.76;73.72;94179.75;5094430;28;1004;-49
2022/04/03 02:43:11;;;;;;;;;;;;;;;6.72;74.45;94170.44;5093819;28;992;-49
2022/04/03 02:45:38;;;;;;;;;;;;;;;6.60;74.35;94175.22;5094194;28;1017;-49
2022/04/03 02:48:04;;;;;;;;;;;;;;;6.49;74.34;94175.50;5093711;28;998;-49
2022/04/03 02:50:30;;;;;;;;;;;;;;;6.48;74.30;94175.66;5094116;28;1039;-49
2022/04/03 02:52:57;;;;;;;;;;;;;;;6.38;74.77;94183.75;5113088;28;1201;-50
2022/04/03 02:55:24;;;;;;;;;;;;;;;6.12;75.14;94189.09;5113999;28;2006;-50
2022/04/03 02:57:52;;;;;;;;;;;;;;;6.04;75.71;94198.66;5113773;28;1091;-50
2022/04/03 03:00:18;;;;;;;;;;;;;;;5.90;76.45;94191.25;5113747;28;1048;-49
2022/04/03 03:02:45;;;;;;;;;;;;;;;5.96;77.65;94205.75;5113661;28;964;-49
2022/04/03 03:05:14;;;;;;;;;;;;;;;6.06;75.96;94196.69;5112792;28;1203;-49
2022/04/03 03:07:41;;;;;;;;;;;;;;;5.93;74.79;94192.75;5113694;28;1103;-50
2022/04/03 03:10:08;;;;;;;;;;;;;;;5.90;74.61;94196.56;5113795;28;1071;-49
2022/04/03 03:12:34;;;;;;;;;;;;;;;5.82;75.58;94197.34;5113522;28;1091;-49
2022/04/03 03:15:01;;;;;;;;;;;;;;;6.01;75.98;94206.09;5112499;28;1914;-49
2022/04/03 03:17:27;;;;;;;;;;;;;;;6.04;76.16;94211.94;5113982;28;955;-49
2022/04/03 03:19:53;;;;;;;;;;;;;;;5.89;75.42;94216.13;5113642;28;982;-49
2022/04/03 03:22:20;;;;;;;;;;;;;;;5.96;76.29;94213.72;5113645;28;1024;-49
2022/04/03 03:24:46;;;;;;;;;;;;;;;6.04;76.56;94216.41;5113804;28;1055;-49
2022/04/03 03:27:12;;;;;;;;;;;;;;;5.83;75.36;94208.78;5113685;28;1095;-50
2022/04/03 03:29:38;;;;;;;;;;;;;;;5.62;75.93;94206.47;5112282;28;1020;-50
2022/04/03 03:32:05;;;;;;;;;;;;;;;5.64;76.22;94205.31;5113602;28;1043;-49
2022/04/03 03:34:31;;;;;;;;;;;;;;;5.86;76.22;94214.63;5113364;28;1910;-48
2022/04/03 03:36:57;;;;;;;;;;;;;;;6.02;76.38;94223.69;5113794;28;956;-48
2022/04/03 03:39:24;;;;;;;;;;;;;;;6.14;75.20;94226.91;5113634;28;1032;-49
2022/04/03 03:41:50;;;;;;;;;;;;;;;6.15;75.49;94233.91;5113576;28;1048;-49
2022/04/03 03:44:16;;;;;;;;;;;;;;;6.10;75.64;94234.34;5113321;28;989;-50
2022/04/03 03:46:42;;;;;;;;;;;;;;;6.01;74.75;94249.41;5113542;28;1027;-49
2022/04/03 03:49:09;;;;;;;;;;;;;;;5.90;76.30;94252.28;5113295;28;1050;-49
2022/04/03 03:51:35;;;;;;;;;;;;;;;5.97;76.64;94256.00;5113323;28;1157;-49
2022/04/03 03:54:03;;;;;;;;;;;;;;;5.91;75.36;94251.28;5113427;28;1992;-50
2022/04/03 03:56:29;;;;;;;;;;;;;;;5.72;74.24;94254.13;5113754;28;968;-49
2022/04/03 03:58:55;;;;;;;;;;;;;;;5.27;76.08;94255.88;5111967;28;1037;-49
2022/04/03 04:01:22;;;;;;;;;;;;;;;5.30;76.34;94257.41;5113655;28;953;-49
2022/04/03 04:03:48;;;;;;;;;;;;;;;5.54;75.54;94259.44;5113090;28;1020;-49
2022/04/03 04:06:15;;;;;;;;;;;;;;;5.69;75.04;94265.84;5113624;28;1020;-50
2022/04/03 04:08:42;;;;;;;;;;;;;;;5.58;75.26;94266.13;5113147;28;1049;-50
2022/04/03 04:11:08;;;;;;;;;;;;;;;5.16;75.18;94259.59;5113243;28;1079;-49
2022/04/03 04:13:35;;;;;;;;;;;;;;;4.89;76.73;94266.59;5115333;28;1988;-49
2022/04/03 04:16:01;;;;;;;;;;;;;;;5.10;76.87;94270.75;5117268;28;1114;-49
2022/04/03 04:18:27;;;;;;;;;;;;;;;5.38;76.29;94273.38;5117009;28;1015;-49
2022/04/03 04:20:53;;;;;;;;;;;;;;;5.52;76.22;94278.16;5117183;28;1055;-49
2022/04/03 04:23:19;;;;;;;;;;;;;;;5.37;75.08;94277.00;5117293;28;1035;-49
2022/04/03 04:25:46;;;;;;;;;;;;;;;5.36;75.62;94286.78;5116959;28;1011;-49
2022/04/03 04:28:12;;;;;;;;;;;;;;;5.38;77.00;94292.75;5116916;28;1011;-49
2022/04/03 04:30:38;;;;;;;;;;;;;;;5.64;75.24;94298.16;5117039;28;979;-49
2022/04/03 04:33:06;;;;;;;;;;;;;;;5.38;76.12;94300.69;5116701;27;964;-50
2022/04/03 04:35:32;;;;;;;;;;;;;;;5.45;77.63;94307.06;5116759;28;1996;-49
2022/04/03 04:37:58;;;;;;;;;;;;;;;5.62;77.81;94304.59;5116695;28;1036;-50
2022/04/03 04:40:24;;;;;;;;;;;;;;;5.66;76.95;94303.31;5116514;28;1079;-49
2022/04/03 04:42:50;;;;;;;;;;;;;;;5.65;75.72;94309.56;5116380;28;1027;-50
2022/04/03 04:45:17;;;;;;;;;;;;;;;5.80;75.47;94310.72;5116351;28;1071;-50
2022/04/03 04:47:43;;;;;;;;;;;;;;;5.80;76.82;94323.97;5116462;28;1040;-50
2022/04/03 04:50:11;;;;;;;;;;;;;;;5.89;76.99;94324.88;5116201;28;909;-50
2022/04/03 04:52:38;;;;;;;;;;;;;;;6.04;76.83;94327.88;5116705;28;1200;-50
2022/04/03 04:55:05;;;;;;;;;;;;;;;5.99;77.33;94336.28;5114868;28;1905;-50
2022/04/03 04:57:32;;;;;;;;;;;;;;;6.04;77.36;94343.78;5116549;27;1000;-50
2022/04/03 04:59:59;;;;;;;;;;;;;;;6.10;77.56;94350.31;5116373;28;1024;-49
2022/04/03 05:02:25;;;;;;;;;;;;;;;6.24;76.90;94347.94;5116227;28;1020;-49
2022/04/03 05:04:51;;;;;;;;;;;;;;;6.45;75.83;94358.22;5115904;28;1087;-49
2022/04/03 05:07:17;;;;;;;;;;;;;;;6.60;76.28;94362.94;5116433;27;1047;-49
2022/04/03 05:09:44;;;;;;;;;;;;;;;6.72;75.41;94356.38;5115092;28;952;-49
2022/04/03 05:12:11;;;;;;;;;;;;;;;6.61;76.84;94352.16;5115715;28;1265;-49
2022/04/03 05:14:38;;;;;;;;;;;;;;;6.55;75.76;94342.16;5115801;28;1909;-49
2022/04/03 05:17:05;;;;;;;;;;;;;;;6.56;76.50;94348.31;5115839;28;1047;-49
2022/04/03 05:19:32;;;;;;;;;;;;;;;6.74;76.02;94351.75;5115740;28;1207;-49
2022/04/03 05:21:58;;;;;;;;;;;;;;;6.91;75.36;94351.84;5116128;28;960;-49
2022/04/03 05:24:24;;;;;;;;;;;;;;;6.93;74.99;94360.50;5115278;27;1032;-49
2022/04/03 05:26:50;;;;;;;;;;;;;;;6.95;75.83;94350.53;5115770;28;1075;-49
2022/04/03 05:29:17;;;;;;;;;;;;;;;7.05;73.59;94359.22;5115835;28;1028;-49
2022/04/03 05:31:43;;;;;;;;;;;;;;;7.19;73.45;94358.63;5114300;28;1882;-49
2022/04/03 05:34:09;;;;;;;;;;;;;;;7.27;73.44;94367.63;5114350;28;1910;-49
2022/04/03 05:36:35;;;;;;;;;;;;;;;7.29;72.66;94368.31;5115462;28;1092;-49
2022/04/03 05:39:04;;;;;;;;;;;;;;;7.20;72.01;94367.44;5115738;28;976;-50
2022/04/03 05:41:30;;;;;;;;;;;;;;;7.34;72.08;94368.63;5115370;28;1088;-50
2022/04/03 05:43:56;;;;;;;;;;;;;;;7.26;71.81;94368.63;5115463;28;1028;-50
2022/04/03 05:46:23;;;;;;;;;;;;;;;7.17;72.28;94365.94;5115436;28;1019;-50
2022/04/03 05:48:49;;;;;;;;;;;;;;;7.36;73.88;94377.28;5115263;28;1020;-50
2022/04/03 05:51:15;;;;;;;;;;;;;;;7.53;72.41;94372.84;5115420;28;1351;-50
2022/04/03 05:53:41;;;;;;;;;;;;;;;7.81;71.57;94371.59;5115462;28;1995;-50
2022/04/03 05:56:08;;;;;;;;;;;;;;;7.94;71.56;94378.28;5115149;28;960;-49
2022/04/03 05:58:34;;;;;;;;;;;;;;;7.96;70.85;94382.44;5115201;28;1087;-50
2022/04/03 06:01:00;;;;;;;;;;;;;;;8.12;70.27;94389.63;5115139;28;960;-49
2022/04/03 06:03:26;;;;;;;;;;;;;;;8.35;69.27;94397.81;5115416;28;947;-49
2022/04/03 06:05:52;;;;;;;;;;;;;;;8.88;68.43;94405.47;5115011;28;1046;-49
2022/04/03 06:08:18;;;;;;;;;;;;;;;9.23;67.75;94414.91;5114968;28;932;-50
2022/04/03 06:10:44;;;;;;;;;;;;;;;9.07;66.20;94421.09;5114725;28;1032;-50
2022/04/03 06:13:13;;;;;;;;;;;;;;;8.64;65.73;94423.16;5114504;28;1973;-50
2022/04/03 06:15:41;;;;;;;;;;;;;;;8.57;66.80;94425.66;5114505;28;1902;-50
2022/04/03 06:18:08;;;;;;;;;;;;;;;8.58;69.71;94429.16;5114950;27;984;-50
2022/04/03 06:20:34;;;;;;;;;;;;;;;8.72;70.30;94428.47;5114894;28;992;-49
2022/04/03 06:23:01;;;;;;;;;;;;;;;9.18;68.38;94435.91;5114629;28;1016;-49
2022/04/03 06:25:27;;;;;;;;;;;;;;;9.60;68.11;94425.94;5114676;28;985;-50
2022/04/03 06:27:53;;;;;;;;;;;;;;;10.43;65.08;94436.03;5114844;28;1015;-49
2022/04/03 06:30:19;;;;;;;;;;;;;;;11.78;58.93;94446.00;5114436;28;1067;-50
2022/04/03 06:32:45;;;;;;;;;;;;;;;11.98;57.57;94448.13;5114594;28;1028;-50
2022/04/03 06:35:11;;;;;;;;;;;;;;;11.19;59.11;94448.63;5113684;28;1988;-50
2022/04/03 06:37:38;;;;;;;;;;;;;;;10.45;59.81;94450.09;5114456;28;963;-50
2022/04/03 06:40:05;;;;;;;;;;;;;;;9.95;61.91;94448.66;5114437;28;1040;-50
2022/04/03 06:42:31;;;;;;;;;;;;;;;9.58;63.79;94458.16;5114124;28;956;-50
2022/04/03 06:44:58;;;;;;;;;;;;;;;10.20;61.02;94460.03;5114204;28;961;-50
2022/04/03 06:47:24;;;;;;;;;;;;;;;9.56;62.66;94463.66;5113996;28;1024;-50
2022/04/03 06:49:50;;;;;;;;;;;;;;;9.02;64.66;94471.44;5114532;28;1042;-50
2022/04/03 06:52:16;;;;;;;;;;;;;;;8.63;65.56;94469.44;5114090;28;1113;-49
2022/04/03 06:54:43;;;;;;;;;;;;;;;8.47;66.93;94474.75;5114174;28;1906;-49
2022/04/03 06:57:09;;;;;;;;;;;;;;;8.40;67.71;94472.72;5114453;28;1035;-49
2022/04/03 06:59:35;;;;;;;;;;;;;;;8.45;68.36;94474.94;5114047;28;1032;-49
2022/04/03 07:02:02;;;;;;;;;;;;;;;8.30;68.45;94490.69;5113963;28;1023;-49
2022/04/03 07:04:28;;;;;;;;;;;;;;;8.24;68.99;94491.34;5114272;28;1031;-50
2022/04/03 07:06:54;;;;;;;;;;;;;;;8.17;68.80;94504.44;5113960;28;1011;-49
2022/04/03 07:09:20;;;;;;;;;;;;;;;8.04;70.04;94501.41;5114177;28;1035;-49
2022/04/03 07:11:46;;;;;;;;;;;;;;;7.98;68.24;94502.91;5113456;28;956;-49
2022/04/03 07:14:12;;;;;;;;;;;;;;;7.84;69.26;94510.69;5113486;28;1913;-49
2022/04/03 07:16:39;;;;;;;;;;;;;;;7.97;69.35;94506.56;5113967;28;1007;-49
2022/04/03 07:19:05;;;;;;;;;;;;;;;11.59;60.57;94508.13;5114029;28;1039;-49
2022/04/03 07:21:32;;;;;;;;;;;;;;;16.94;45.55;94514.19;5113611;28;1079;-50
2022/04/03 07:23:58;;;;;;;;;;;;;;;21.84;35.49;94513.97;5113826;28;1036;-50
2022/04/03 07:26:24;;;;;;;;;;;;;;;25.96;28.46;94519.31;5112488;28;1043;-50
2022/04/03 07:28:50;;;;;;;;;;;;;;;27.96;30.05;94521.47;5113566;28;1088;-51
2022/04/03 07:31:16;;;;;;;;;;;;;;;29.47;24.43;94512.28;5113710;28;1035;-51
2022/04/03 07:33:42;;;;;;;;;;;;;;;30.75;22.05;94513.06;5113842;28;1997;-51
2022/04/03 07:36:08;;;;;;;;;;;;;;;30.93;21.31;94517.72;5113744;28;944;-51
2022/04/03 07:38:34;;;;;;;;;;;;;;;30.71;22.60;94515.59;5113405;28;1012;-51
2022/04/03 07:41:00;;;;;;;;;;;;;;;29.20;21.87;94519.25;5146590;27;1031;-51
2022/04/03 07:43:26;;;;;;;;;;;;;;;28.03;22.60;94525.53;5113294;28;1016;-51
2022/04/03 07:45:52;;;;;;;;;;;;;;;26.64;25.49;94517.09;5113651;28;956;-50
2022/04/03 07:48:22;;;;;;;;;;;;;;;23.61;29.88;94520.44;5117750;28;1031;-50
2022/04/03 07:50:48;;;;;;;;;;;;;;;21.42;30.76;94514.31;5117433;28;1153;-49
2022/04/03 07:53:14;;;;;;;;;;;;;;;20.44;31.75;94516.94;5116246;28;1032;-49
2022/04/03 07:55:40;;;;;;;;;;;;;;;19.89;34.87;94512.69;5117603;28;1910;-49
2022/04/03 07:58:06;;;;;;;;;;;;;;;19.02;34.72;94507.72;5117388;28;1046;-50
2022/04/03 08:00:33;;;;;;;;;;;;;;;19.07;36.49;94516.81;5117379;28;1087;-50
2022/04/03 08:02:59;;;;;;;;;;;;;;;18.83;36.66;94515.88;5117201;28;1300;-49
2022/04/03 08:05:25;;;;;;;;;;;;;;;18.90;37.04;94500.38;5117716;28;1051;-49
2022/04/03 08:07:51;;;;;;;;;;;;;;;19.06;37.43;94509.72;5117399;28;960;-50
2022/04/03 08:10:20;;;;;;;;;;;;;;;19.84;35.16;94499.00;5117319;28;1128;-49
2022/04/03 08:12:47;;;;;;;;;;;;;;;19.79;33.12;94501.59;5116651;28;1104;-49
2022/04/03 08:15:14;;;;;;;;;;;;;;;19.94;36.07;94499.25;5117030;28;1992;-49
2022/04/03 08:17:40;;;;;;;;;;;;;;;19.98;34.57;94500.44;5117225;28;960;-49
2022/04/03 08:20:08;;;;;;;;;;;;;;;20.00;34.56;94500.22;5117117;28;1848;-50
2022/04/03 08:22:35;;;;;;;;;;;;;;;20.29;33.76;94506.56;5117215;27;980;-49
2022/04/03 08:25:02;;;;;;;;;;;;;;;20.72;32.30;94509.97;5116929;28;1072;-50
2022/04/03 08:27:42;;;;;;;;;;;;;;;20.01;32.47;94510.78;5117044;28;973;-50
2022/04/03 08:30:10;;;;;;;;;;;;;;;19.96;35.03;94505.28;5116754;27;1032;-50
2022/04/03 08:32:36;;;;;;;;;;;;;;;20.15;34.32;94510.59;5116709;28;916;-50
2022/04/03 08:35:02;;;;;;;;;;;;;;;20.31;34.17;94509.03;5116928;28;1988;-50
2022/04/03 08:37:28;;;;;;;;;;;;;;;19.90;35.67;94498.09;5116675;28;968;-49
2022/04/03 08:39:54;;;;;;;;;;;;;;;20.08;33.84;94503.38;5116715;28;1016;-50
2022/04/03 08:42:20;;;;;;;;;;;;;;;19.67;32.84;94494.25;5116371;28;1948;-49
2022/04/03 08:44:46;;;;;;;;;;;;;;;19.17;33.29;94494.59;5116651;28;1108;-49
2022/04/03 08:47:15;;;;;;;;;;;;;;;19.02;36.77;94496.88;5116589;28;1042;-49
2022/04/03 08:49:43;;;;;;;;;;;;;;;17.67;36.61;94501.22;5116443;28;1043;-49
2022/04/03 08:52:12;;;;;;;;;;;;;;;16.42;37.55;94504.44;5116442;28;1161;-50
2022/04/03 08:54:38;;;;;;;;;;;;;;;15.56;37.58;94501.66;5116230;28;1987;-49
2022/04/03 08:57:04;;;;;;;;;;;;;;;16.65;36.41;94493.94;5116654;28;1018;-49
2022/04/03 08:59:30;;;;;;;;;;;;;;;17.39;34.24;94498.94;5115578;28;972;-50
2022/04/03 09:01:56;;;;;;;;;;;;;;;17.53;35.49;94493.22;5116428;28;1036;-50
2022/04/03 09:04:22;;;;;;;;;;;;;;;16.15;35.10;94507.22;5116126;28;1091;-49
2022/04/03 09:06:55;;;;;;;;;;;;;;;17.29;35.99;94510.25;5116477;28;1020;-50
2022/04/03 09:09:22;;;;;;;;;;;;;;;17.28;35.88;94511.28;5114853;28;1024;-50
2022/04/03 09:12:08;;;;;;;;;;;;;;;17.05;35.25;94511.84;5115832;28;1091;-49
2022/04/03 09:14:34;;;;;;;;;;;;;;;16.72;35.15;94513.66;5116119;28;1910;-50
2022/04/03 09:17:01;;;;;;;;;;;;;;;17.02;35.50;94515.00;5116035;28;1055;-50
2022/04/03 09:19:34;;;;;;;;;;;;;;;17.51;34.73;94518.81;5115889;28;1008;-50
2022/04/03 09:22:01;;;;;;;;;;;;;;;17.56;33.36;94510.88;5115827;28;1095;-50
2022/04/03 09:24:28;;;;;;;;;;;;;;;17.59;34.20;94521.25;5115961;28;1047;-51
2022/04/03 09:27:01;;;;;;;;;;;;;;;17.51;35.27;94511.53;5115762;28;1032;-50
2022/04/03 09:29:28;;;;;;;;;;;;;;;16.69;35.32;94515.94;5115661;28;1051;-50
2022/04/03 09:31:58;;;;;;;;;;;;;;;16.31;35.90;94522.91;5115817;28;984;-50
2022/04/03 09:34:25;;;;;;;;;;;;;;;15.85;35.96;94515.75;5115711;28;1995;-50
2022/04/03 09:37:01;;;;;;;;;;;;;;;15.06;36.52;94501.19;5115907;28;1039;-50
2022/04/03 09:39:29;;;;;;;;;;;;;;;14.67;37.92;94507.34;5115755;28;952;-50
2022/04/03 09:41:57;;;;;;;;;;;;;;;14.87;36.91;94502.00;5115519;28;960;-49
2022/04/03 09:44:34;;;;;;;;;;;;;;;16.57;34.63;94508.50;5115224;28;1009;-50
2022/04/03 09:47:18;;;;;;;;;;;;;;;16.02;35.75;94499.16;5115388;28;1031;-50
2022/04/03 09:49:45;;;;;;;;;;;;;;;15.18;35.67;94493.38;5115260;28;1019;-51
2022/04/03 09:52:11;;;;;;;;;;;;;;;14.86;37.61;94501.16;5115271;28;1168;-51
2022/04/03 09:54:38;;;;;;;;;;;;;;;14.70;36.75;94501.53;5115062;28;1902;-51
2022/04/03 09:57:25;;;;;;;;;;;;;;;14.39;37.24;94497.47;5115265;28;1071;-51
2022/04/03 09:59:55;;;;;;;;;;;;;;;14.48;36.94;94504.34;5115214;28;1011;-51
2022/04/03 10:02:22;;;;;;;;;;;;;;;14.29;37.74;94502.41;5115198;28;1106;-52
2022/04/03 10:04:50;;;;;;;;;;;;;;;13.97;37.96;94508.22;5114997;28;1027;-51
2022/04/03 10:07:16;;;;;;;;;;;;;;;13.56;39.47;94511.66;5115181;28;1216;-50
2022/04/03 10:09:46;;;;;;;;;;;;;;;13.34;39.88;94513.56;5115128;28;1076;-51
2022/04/03 10:12:16;;;;;;;;;;;;;;;13.27;39.62;94518.81;5114426;28;1103;-51
2022/04/03 10:14:42;;;;;;;;;;;;;;;13.39;40.04;94515.66;5114744;28;1977;-50
2022/04/03 10:17:08;;;;;;;;;;;;;;;13.61;38.51;94513.75;5114757;28;1084;-50
2022/04/03 10:19:34;;;;;;;;;;;;;;;13.73;38.54;94525.63;5114996;28;932;-51
2022/04/03 10:22:01;;;;;;;;;;;;;;;13.54;38.69;94529.00;5114686;28;1114;-50
2022/04/03 10:24:29;;;;;;;;;;;;;;;13.25;39.42;94528.09;5114589;28;1032;-51
2022/04/03 10:26:55;;;;;;;;;;;;;;;12.99;40.12;94528.66;5114560;28;965;-51
2022/04/03 10:29:22;;;;;;;;;;;;;;;12.97;39.99;94536.91;5114296;28;1076;-51
2022/04/03 10:31:55;;;;;;;;;;;;;;;12.92;41.60;94533.97;5114809;28;1039;-50
2022/04/03 10:34:21;;;;;;;;;;;;;;;12.72;42.10;94546.34;5114595;28;1984;-51
2022/04/03 10:36:50;;;;;;;;;;;;;;;12.56;42.98;94542.88;5114759;28;1028;-50
2022/04/03 10:39:24;;;;;;;;;;;;;;;12.43;44.26;94553.44;5114261;28;1817;-51
2022/04/03 10:41:50;;;;;;;;;;;;;;;12.38;44.76;94539.75;5114360;28;1039;-50
2022/04/03 10:44:16;;;;;;;;;;;;;;;12.24;45.36;94541.44;5114473;28;976;-50
2022/04/03 10:47:01;;;;;;;;;;;;;;;12.39;46.93;94538.75;5114624;28;1027;-51
2022/04/03 10:49:50;;;;;;;;;;;;;;;12.31;46.05;94539.66;5114214;28;1027;-51
2022/04/03 10:52:22;;;;;;;;;;;;;;;12.18;47.34;94552.88;5103602;28;1847;-51
2022/04/03 10:54:51;;;;;;;;;;;;;;;12.75;46.21;94541.44;5113888;27;1910;-51
2022/04/03 10:57:40;;;;;;;;;;;;;;;13.39;46.63;94548.72;5114433;28;1047;-51
2022/04/03 11:00:10;;;;;;;;;;;;;;;14.06;44.66;94547.34;5113882;28;964;-51
2022/04/03 11:02:36;;;;;;;;;;;;;;;14.38;43.73;94552.25;5114075;28;1016;-51
2022/04/03 11:05:26;;;;;;;;;;;;;;;14.55;46.13;94560.81;5114061;28;966;-51
2022/04/03 11:08:04;;;;;;;;;;;;;;;14.75;44.61;94558.25;5105971;28;1539;-51
2022/04/03 11:10:48;;;;;;;;;;;;;;;14.51;45.68;94564.94;5113748;28;1015;-51
2022/04/03 11:13:15;;;;;;;;;;;;;;;14.20;44.65;94561.69;5112452;28;1139;-51
2022/04/03 11:15:45;;;;;;;;;;;;;;;14.43;44.57;94568.63;5113581;28;1910;-51
2022/04/03 11:18:31;;;;;;;;;;;;;;;14.03;43.95;94576.47;5113963;28;1027;-51
2022/04/03 11:21:17;;;;;;;;;;;;;;;13.62;45.54;94579.88;5102469;28;1636;-51
2022/04/03 11:23:47;;;;;;;;;;;;;;;13.36;45.68;94586.69;5114179;28;1055;-50
2022/04/03 11:26:13;;;;;;;;;;;;;;;13.25;45.57;94593.34;5113883;28;952;-51
2022/04/03 11:28:39;;;;;;;;;;;;;;;13.37;46.28;94579.44;5113787;28;1047;-50
2022/04/03 11:31:05;;;;;;;;;;;;;;;13.35;44.79;94576.94;5113428;28;1056;-50
2022/04/03 11:33:32;;;;;;;;;;;;;;;13.36;45.07;94580.50;5113689;28;1048;-51
2022/04/03 11:36:03;;;;;;;;;;;;;;;13.48;45.50;94579.75;5113566;28;1989;-51
2022/04/03 11:38:36;;;;;;;;;;;;;;;13.46;44.71;94587.19;5113973;28;1101;-51
2022/04/03 11:41:03;;;;;;;;;;;;;;;13.38;45.31;94595.38;5113590;28;976;-51
2022/04/03 11:43:29;;;;;;;;;;;;;;;13.50;45.33;94593.00;5113406;28;1022;-51
2022/04/03 11:45:57;;;;;;;;;;;;;;;13.56;44.09;94600.28;5113214;28;1152;-50
2022/04/03 11:48:25;;;;;;;;;;;;;;;13.34;44.32;94598.66;5113526;28;1095;-51
2022/04/03 11:51:02;;;;;;;;;;;;;;;13.24;45.31;94601.59;5113244;28;1157;-51
2022/04/03 11:53:28;;;;;;;;;;;;;;;13.09;44.65;94612.41;5113600;28;1028;-50
2022/04/03 11:55:55;;;;;;;;;;;;;;;13.14;44.82;94609.13;5113500;28;1910;-50
2022/04/03 11:58:29;;;;;;;;;;;;;;;13.06;44.76;94596.66;5113828;28;1090;-50
2022/04/03 12:00:57;;;;;;;;;;;;;;;13.07;46.24;94598.31;5113484;28;960;-51
2022/04/03 12:03:27;;;;;;;;;;;;;;;13.12;45.81;94603.13;5113431;28;1052;-51
2022/04/03 12:06:29;;;;;;;;;;;;;;;13.00;45.83;94592.88;5113118;28;1040;-50
2022/04/03 12:08:55;;;;;;;;;;;;;;;13.20;45.26;94594.94;5030553;28;1297;-51
2022/04/03 12:11:22;;;;;;;;;;;;;;;13.39;44.89;94585.44;5096297;28;1063;-51
2022/04/03 12:13:48;;;;;;;;;;;;;;;13.27;44.52;94583.25;5112948;28;1918;-50
2022/04/03 12:16:20;;;;;;;;;;;;;;;12.96;43.05;94586.25;5113395;28;1031;-50
2022/04/03 12:18:47;;;;;;;;;;;;;;;12.90;42.77;94576.28;5113135;28;1059;-50
2022/04/03 12:21:13;;;;;;;;;;;;;;;13.46;42.59;94573.75;5113028;28;1075;-50
2022/04/03 12:23:59;;;;;;;;;;;;;;;13.91;42.27;94572.69;5113494;28;1027;-50
2022/04/03 12:26:25;;;;;;;;;;;;;;;14.20;40.64;94569.75;5113256;28;1728;-50
2022/04/03 12:28:51;;;;;;;;;;;;;;;14.08;39.50;94571.34;5113297;28;960;-51
2022/04/03 12:31:17;;;;;;;;;;;;;;;13.90;38.04;94574.50;5113112;28;1004;-50
2022/04/03 12:33:43;;;;;;;;;;;;;;;13.95;40.59;94584.69;5114358;28;1870;-50
2022/04/03 12:36:09;;;;;;;;;;;;;;;13.89;40.03;94578.25;5116878;28;1972;-50
2022/04/03 12:38:36;;;;;;;;;;;;;;;13.95;39.70;94582.00;5116738;28;1031;-51
2022/04/03 12:41:03;;;;;;;;;;;;;;;14.10;39.53;94577.34;5116431;28;1028;-50
2022/04/03 12:43:41;;;;;;;;;;;;;;;14.27;38.74;94577.88;5116518;28;1134;-50
2022/04/03 12:46:07;;;;;;;;;;;;;;;14.17;38.46;94572.00;5116786;28;964;-51
2022/04/03 12:48:34;;;;;;;;;;;;;;;13.75;39.92;94566.53;5116919;28;1058;-51
2022/04/03 12:51:06;;;;;;;;;;;;;;;13.77;39.77;94563.66;5116219;28;1200;-50
2022/04/03 12:53:32;;;;;;;;;;;;;;;13.33;39.44;94556.69;5116566;28;1031;-51
2022/04/03 12:56:03;;;;;;;;;;;;;;;13.27;40.10;94552.91;5116364;28;1981;-50
2022/04/03 12:58:38;;;;;;;;;;;;;;;13.28;39.58;94552.72;5116663;28;1007;-51
2022/04/03 13:01:14;;;;;;;;;;;;;;;13.41;39.76;94546.66;5116431;28;965;-51
2022/04/03 13:03:40;;;;;;;;;;;;;;;13.40;38.29;94544.16;5116329;28;968;-51
2022/04/03 13:06:09;;;;;;;;;;;;;;;13.26;38.57;94559.28;5116211;28;944;-51
2022/04/03 13:08:43;;;;;;;;;;;;;;;13.38;38.90;94546.22;5116244;28;1032;-51